createdAt,value
2018-10-05T00:01:40.617Z,20.53
2018-10-05T00:04:09.004Z,20.33
2018-10-05T00:06:37.389Z,20.13
2018-10-05T00:09:08.961Z,20.70
2018-10-05T00:11:37.390Z,19.53
2018-10-05T00:14:05.797Z,19.50
2018-10-05T00:16:34.213Z,19.97
2018-10-05T00:19:02.612Z,19.47
2018-10-05T00:21:30.954Z,19.97
2018-10-05T00:23:59.357Z,20.07
2018-10-05T00:26:27.718Z,20.80
2018-10-05T00:28:56.962Z,20.80
2018-10-05T00:31:25.345Z,19.83
2018-10-05T00:33:53.764Z,20.67
2018-10-05T00:36:22.150Z,19.90
2018-10-05T00:38:50.456Z,19.83
2018-10-05T00:41:18.891Z,19.30
2018-10-05T00:43:47.265Z,21.13
2018-10-05T00:46:15.670Z,20.57
2018-10-05T00:48:44.018Z,19.63
2018-10-05T00:51:12.441Z,19.90
2018-10-05T00:53:40.838Z,21.23
2018-10-05T00:56:09.236Z,20.47
2018-10-05T00:58:37.558Z,19.90
2018-10-05T01:01:06.135Z,20.90
2018-10-05T01:03:34.527Z,20.67
2018-10-05T01:06:02.857Z,21.77
2018-10-05T01:08:31.197Z,22.00
2018-10-05T01:10:59.597Z,20.23
2018-10-05T01:13:27.922Z,20.87
2018-10-05T01:15:56.266Z,20.93
2018-10-05T01:18:24.606Z,21.87
2018-10-05T01:20:52.993Z,22.23
2018-10-05T01:23:21.363Z,21.33
2018-10-05T01:25:49.765Z,22.50
2018-10-05T01:28:18.122Z,20.93
2018-10-05T01:30:46.644Z,22.53
2018-10-05T01:33:14.982Z,22.20
2018-10-05T01:35:43.305Z,22.07
2018-10-05T01:38:11.682Z,21.97
2018-10-05T01:40:40.100Z,22.67
2018-10-05T01:43:08.480Z,22.73
2018-10-05T01:45:36.845Z,22.10
2018-10-05T01:48:05.206Z,22.43
2018-10-05T01:50:33.595Z,22.80
2018-10-05T01:53:01.954Z,22.80
2018-10-05T01:55:30.333Z,23.10
2018-10-05T01:57:58.693Z,23.27
2018-10-05T02:00:27.044Z,24.70
2018-10-05T02:02:55.524Z,23.87
2018-10-05T02:05:23.915Z,23.90
2018-10-05T02:07:52.313Z,23.00
2018-10-05T02:10:20.865Z,23.87
2018-10-05T02:12:49.254Z,24.20
2018-10-05T02:15:17.621Z,24.23
2018-10-05T02:17:46.013Z,24.30
2018-10-05T02:20:14.408Z,24.30
2018-10-05T02:22:42.747Z,24.70
2018-10-05T02:25:11.167Z,23.50
2018-10-05T02:27:39.632Z,24.03
2018-10-05T02:30:07.979Z,23.87
2018-10-05T02:32:36.377Z,25.13
2018-10-05T02:35:04.842Z,24.37
2018-10-05T02:37:33.183Z,24.93
2018-10-05T02:40:01.577Z,24.47
2018-10-05T02:42:30.007Z,25.53
2018-10-05T02:44:58.352Z,24.93
2018-10-05T02:47:26.684Z,24.83
2018-10-05T02:49:54.945Z,25.10
2018-10-05T02:52:23.325Z,24.50
2018-10-05T02:54:51.657Z,25.63
2018-10-05T02:57:19.946Z,26.17
2018-10-05T02:59:48.246Z,26.03
2018-10-05T03:02:27.977Z,25.07
2018-10-05T03:04:56.457Z,25.60
2018-10-05T03:07:25.321Z,26.37
2018-10-05T03:09:53.600Z,26.03
2018-10-05T03:12:21.909Z,26.40
2018-10-05T03:14:50.154Z,26.80
2018-10-05T03:17:18.452Z,26.77
2018-10-05T03:19:46.759Z,26.60
2018-10-05T03:22:15.137Z,28.17
2018-10-05T03:24:43.443Z,26.70
2018-10-05T03:27:12.001Z,27.07
2018-10-05T03:29:40.485Z,27.23
2018-10-05T03:32:09.067Z,27.37
2018-10-05T03:34:37.402Z,26.63
2018-10-05T03:37:06.038Z,26.43
2018-10-05T03:39:34.295Z,26.00
2018-10-05T03:42:02.585Z,27.30
2018-10-05T03:44:30.896Z,27.73
2018-10-05T03:46:59.198Z,28.10
2018-10-05T03:49:27.456Z,26.67
2018-10-05T03:51:55.779Z,28.03
2018-10-05T03:54:24.620Z,27.47
2018-10-05T03:56:52.909Z,28.07
2018-10-05T03:59:21.193Z,29.10
2018-10-05T04:01:49.465Z,28.33
2018-10-05T04:04:17.729Z,27.53
2018-10-05T04:06:46.039Z,28.97
2018-10-05T04:09:14.297Z,29.07
2018-10-05T04:11:42.573Z,30.10
2018-10-05T04:14:10.861Z,29.23
2018-10-05T04:16:39.190Z,30.43
2018-10-05T04:19:07.690Z,29.77
2018-10-05T04:21:36.001Z,28.97
2018-10-05T04:24:04.312Z,29.10
2018-10-05T04:26:32.937Z,27.30
2018-10-05T04:29:01.226Z,28.87
2018-10-05T04:31:29.524Z,31.90
2018-10-05T04:33:57.797Z,30.57
2018-10-05T04:36:26.353Z,29.97
2018-10-05T04:38:54.676Z,28.97
2018-10-05T04:41:23.037Z,30.17
2018-10-05T04:43:51.209Z,29.10
2018-10-05T04:46:19.541Z,30.07
2018-10-05T04:48:47.882Z,30.13
2018-10-05T04:51:16.261Z,28.20
2018-10-05T04:53:44.685Z,29.60
2018-10-05T04:56:13.015Z,28.43
2018-10-05T04:58:41.279Z,27.87
2018-10-05T05:01:09.580Z,26.67
2018-10-05T05:03:37.904Z,27.73
2018-10-05T05:06:06.117Z,28.93
2018-10-05T05:08:34.442Z,27.33
2018-10-05T05:11:02.940Z,27.80
2018-10-05T05:13:31.234Z,29.87
2018-10-05T05:15:59.533Z,28.03
2018-10-05T05:18:27.780Z,28.47
2018-10-05T05:20:56.083Z,26.47
2018-10-05T05:23:24.355Z,30.07
2018-10-05T05:25:52.650Z,29.80
2018-10-05T05:28:21.041Z,28.77
2018-10-05T05:30:49.340Z,29.53
2018-10-05T05:33:17.680Z,27.80
2018-10-05T05:35:46.401Z,30.50
2018-10-05T05:38:14.733Z,28.90
2018-10-05T05:40:42.988Z,27.30
2018-10-05T05:43:11.334Z,28.23
2018-10-05T05:45:39.663Z,27.67
2018-10-05T05:48:08.217Z,27.87
2018-10-05T05:50:36.485Z,30.07
2018-10-05T05:53:04.953Z,29.07
2018-10-05T05:55:33.236Z,30.00
2018-10-05T05:58:01.721Z,27.47
2018-10-05T06:00:30.038Z,29.03
2018-10-05T06:02:58.317Z,29.37
2018-10-05T06:05:26.654Z,27.17
2018-10-05T06:07:54.919Z,29.13
2018-10-05T06:10:23.196Z,26.77
2018-10-05T06:12:51.455Z,27.37
2018-10-05T06:15:19.699Z,27.50
2018-10-05T06:17:47.957Z,27.80
2018-10-05T06:20:16.233Z,28.87
2018-10-05T06:22:44.553Z,27.77
2018-10-05T06:25:12.809Z,27.67
2018-10-05T06:27:41.083Z,28.40
2018-10-05T06:30:09.316Z,25.97
2018-10-05T06:32:37.581Z,26.27
2018-10-05T06:35:05.856Z,27.00
2018-10-05T06:37:34.131Z,26.63
2018-10-05T06:40:02.426Z,25.67
2018-10-05T06:42:30.717Z,25.97
2018-10-05T06:44:58.921Z,26.07
2018-10-05T06:47:27.194Z,26.40
2018-10-05T06:49:55.452Z,26.20
2018-10-05T06:52:23.797Z,26.77
2018-10-05T06:54:52.117Z,25.83
2018-10-05T06:57:20.396Z,24.80
2018-10-05T06:59:48.745Z,24.87
2018-10-05T07:02:17.043Z,25.43
2018-10-05T07:04:45.359Z,23.07
2018-10-05T07:07:13.994Z,23.27
2018-10-05T07:09:42.281Z,24.23
2018-10-05T07:12:10.529Z,24.63
2018-10-05T07:14:38.812Z,22.63
2018-10-05T07:17:07.106Z,22.47
2018-10-05T07:19:35.325Z,21.70
2018-10-05T07:22:03.568Z,22.30
2018-10-05T07:24:31.929Z,21.93
2018-10-05T07:27:00.159Z,22.27
2018-10-05T07:29:28.397Z,20.23
2018-10-05T07:31:56.704Z,20.03
2018-10-05T07:34:24.941Z,20.63
2018-10-05T07:36:53.320Z,21.70
2018-10-05T07:39:21.536Z,19.40
2018-10-05T07:41:49.841Z,21.13
2018-10-05T07:44:18.158Z,18.87
2018-10-05T07:46:46.455Z,18.30
2018-10-05T07:49:14.709Z,18.17
2018-10-05T07:51:43.017Z,17.90
2018-10-05T07:54:11.276Z,17.83
2018-10-05T07:56:39.538Z,16.70
2018-10-05T07:59:07.842Z,15.90
2018-10-05T08:01:36.155Z,15.80
2018-10-05T08:04:04.454Z,16.13
2018-10-05T08:06:32.708Z,16.13
2018-10-05T08:09:00.980Z,14.77
2018-10-05T08:11:29.213Z,14.33
2018-10-05T08:13:57.469Z,13.33
2018-10-05T08:16:25.749Z,12.97
2018-10-05T08:18:54.045Z,13.53
2018-10-05T08:21:22.325Z,13.90
2018-10-05T08:23:50.706Z,12.53
2018-10-05T08:26:19.701Z,13.47
2018-10-05T08:28:47.965Z,12.93
2018-10-05T08:31:16.231Z,13.77
2018-10-05T08:33:44.565Z,13.47
2018-10-05T08:36:12.860Z,13.43
2018-10-05T08:38:41.169Z,12.90
2018-10-05T08:41:09.474Z,13.57
2018-10-05T08:43:37.725Z,13.83
2018-10-05T08:46:06.015Z,12.13
2018-10-05T08:48:34.344Z,13.03
2018-10-05T08:51:02.626Z,13.10
2018-10-05T08:53:30.945Z,14.00
2018-10-05T08:55:59.335Z,14.77
2018-10-05T08:58:27.749Z,13.03
2018-10-05T09:00:56.181Z,12.37
2018-10-05T09:03:24.459Z,14.13
2018-10-05T09:05:52.852Z,13.27
2018-10-05T09:08:21.055Z,12.87
2018-10-05T09:10:49.352Z,13.00
2018-10-05T09:13:17.677Z,12.37
2018-10-05T09:15:45.925Z,13.00
2018-10-05T09:18:14.256Z,12.63
2018-10-05T09:20:42.464Z,12.73
2018-10-05T09:23:10.752Z,11.83
2018-10-05T09:25:39.067Z,12.27
2018-10-05T09:28:07.306Z,13.20
2018-10-05T09:30:35.764Z,12.37
2018-10-05T09:33:03.997Z,11.90
2018-10-05T09:35:32.265Z,11.23
2018-10-05T09:38:00.707Z,11.93
2018-10-05T09:40:29.016Z,11.53
2018-10-05T09:42:57.294Z,11.00
2018-10-05T09:45:25.589Z,11.13
2018-10-05T09:47:53.845Z,10.33
2018-10-05T09:50:22.171Z,9.50
2018-10-05T09:52:50.644Z,9.33
2018-10-05T09:55:18.977Z,8.83
2018-10-05T09:57:47.320Z,9.07
2018-10-05T10:00:21.018Z,10.60
2018-10-05T10:03:55.142Z,9.47
2018-10-05T10:06:23.417Z,9.90
2018-10-05T10:08:51.813Z,9.77
2018-10-05T10:11:20.065Z,10.37
2018-10-05T10:13:48.424Z,10.10
2018-10-05T10:16:16.731Z,9.10
2018-10-05T10:18:44.974Z,9.27
2018-10-05T10:21:13.277Z,8.77
2018-10-05T10:23:41.611Z,8.23
2018-10-05T10:26:09.960Z,7.80
2018-10-05T10:28:38.341Z,7.90
2018-10-05T10:31:07.338Z,7.90
2018-10-05T10:33:35.619Z,7.57
2018-10-05T10:36:03.931Z,7.47
2018-10-05T10:38:32.242Z,7.03
2018-10-05T10:41:00.558Z,7.35
2018-10-05T10:43:28.785Z,6.95
2018-10-05T10:45:57.032Z,6.75
2018-10-05T10:48:25.373Z,7.33
2018-10-05T10:50:53.624Z,6.37
2018-10-05T10:53:21.925Z,6.47
2018-10-05T10:55:50.198Z,5.70
2018-10-05T10:58:18.509Z,6.30
2018-10-05T11:00:46.944Z,5.60
2018-10-05T11:03:15.135Z,5.67
2018-10-05T11:05:43.529Z,5.50
2018-10-05T11:08:11.790Z,4.92
2018-10-05T11:10:40.249Z,6.12
2018-10-05T11:13:08.573Z,5.78
2018-10-05T11:15:36.953Z,5.00
2018-10-05T11:18:05.249Z,4.78
2018-10-05T11:20:34.636Z,4.22
2018-10-05T11:23:03.031Z,4.62
2018-10-05T11:25:31.281Z,5.17
2018-10-05T11:27:59.545Z,4.17
2018-10-05T11:30:27.829Z,4.67
2018-10-05T11:32:56.160Z,4.80
2018-10-05T11:35:24.472Z,5.03
2018-10-05T11:37:52.720Z,5.92
2018-10-05T11:40:21.017Z,5.25
2018-10-05T11:42:49.321Z,5.35
2018-10-05T11:45:17.552Z,4.60
2018-10-05T11:47:45.909Z,4.65
2018-10-05T11:50:14.198Z,4.53
2018-10-05T11:52:42.444Z,4.42
2018-10-05T11:55:10.748Z,4.62
2018-10-05T11:57:38.969Z,4.42
2018-10-05T12:00:07.771Z,4.45
2018-10-05T12:02:36.332Z,4.30
2018-10-05T12:05:04.665Z,3.55
2018-10-05T12:07:32.906Z,3.77
2018-10-05T12:10:01.185Z,3.70
2018-10-05T12:12:29.466Z,3.50
2018-10-05T12:14:57.730Z,3.62
2018-10-05T12:17:25.997Z,3.90
2018-10-05T12:19:54.314Z,3.40
2018-10-05T12:22:22.561Z,3.42
2018-10-05T12:24:50.828Z,3.10
2018-10-05T12:27:19.114Z,2.83
2018-10-05T12:29:47.393Z,2.80
2018-10-05T12:32:15.684Z,3.47
2018-10-05T12:34:43.928Z,3.12
2018-10-05T12:37:12.240Z,3.10
2018-10-05T12:39:40.484Z,3.17
2018-10-05T12:42:08.801Z,3.10
2018-10-05T12:44:37.053Z,3.12
2018-10-05T12:47:05.356Z,3.02
2018-10-05T12:49:33.663Z,2.70
2018-10-05T12:52:01.966Z,3.00
2018-10-05T12:54:30.316Z,2.87
2018-10-05T12:56:58.600Z,2.70
2018-10-05T12:59:26.887Z,2.58
2018-10-05T13:01:55.166Z,2.60
2018-10-05T13:04:23.450Z,2.50
2018-10-05T13:06:51.899Z,2.80
2018-10-05T13:09:20.241Z,2.17
2018-10-05T13:11:48.613Z,2.27
2018-10-05T13:14:16.917Z,1.98
2018-10-05T13:16:45.233Z,2.10
2018-10-05T13:19:13.524Z,1.70
2018-10-05T13:21:41.814Z,2.30
2018-10-05T13:24:10.145Z,2.52
2018-10-05T13:26:38.403Z,2.22
2018-10-05T13:29:06.737Z,1.70
2018-10-05T13:31:35.022Z,1.87
2018-10-05T13:34:03.729Z,1.70
2018-10-05T13:36:32.019Z,2.00
2018-10-05T13:39:00.367Z,2.10
2018-10-05T13:41:28.698Z,1.82
2018-10-05T13:43:56.975Z,1.70
2018-10-05T13:46:25.210Z,2.70
2018-10-05T13:48:53.489Z,1.55
2018-10-05T13:51:21.733Z,2.12
2018-10-05T13:53:50.050Z,2.20
2018-10-05T13:56:18.304Z,1.95
2018-10-05T13:58:46.557Z,1.75
2018-10-05T14:01:17.400Z,2.10
2018-10-05T14:03:45.703Z,2.45
2018-10-05T14:06:14.444Z,1.55
2018-10-05T14:08:42.770Z,1.85
2018-10-05T14:11:11.097Z,1.98
2018-10-05T14:13:39.390Z,2.15
2018-10-05T14:16:07.739Z,1.82
2018-10-05T14:18:36.080Z,1.70
2018-10-05T14:21:04.399Z,2.20
2018-10-05T14:23:32.780Z,2.00
2018-10-05T14:26:01.154Z,1.60
2018-10-05T14:28:29.481Z,2.10
2018-10-05T14:31:18.290Z,1.93
2018-10-05T14:33:46.673Z,1.73
2018-10-05T14:36:15.049Z,2.00
2018-10-05T14:38:43.367Z,2.33
2018-10-05T14:41:11.674Z,2.07
2018-10-05T14:43:40.045Z,2.30
2018-10-05T14:46:08.366Z,1.90
2018-10-05T14:48:36.689Z,2.03
2018-10-05T14:51:05.166Z,2.57
2018-10-05T14:53:33.441Z,1.73
2018-10-05T14:56:01.782Z,2.37
2018-10-05T14:58:30.194Z,2.03
2018-10-05T15:00:58.618Z,2.03
2018-10-05T15:03:26.919Z,1.93
2018-10-05T15:05:55.185Z,2.40
2018-10-05T15:08:23.539Z,1.53
2018-10-05T15:10:51.860Z,2.03
2018-10-05T15:13:20.211Z,2.23
2018-10-05T15:15:48.464Z,2.17
2018-10-05T15:18:16.856Z,2.20
2018-10-05T15:20:45.154Z,2.10
2018-10-05T15:23:13.464Z,2.50
2018-10-05T15:25:41.772Z,2.23
2018-10-05T15:28:10.049Z,2.20
2018-10-05T15:30:38.314Z,2.20
2018-10-05T15:33:06.594Z,2.13
2018-10-05T15:35:35.039Z,2.33
2018-10-05T15:38:03.328Z,2.40
2018-10-05T15:40:31.743Z,2.30
2018-10-05T15:43:00.109Z,2.33
2018-10-05T15:45:28.449Z,2.37
2018-10-05T15:47:56.711Z,2.20
2018-10-05T15:50:24.988Z,2.63
2018-10-05T15:52:53.246Z,2.67
2018-10-05T15:55:21.618Z,2.70
2018-10-05T15:57:49.981Z,2.67
2018-10-05T16:00:18.264Z,2.27
2018-10-05T16:02:46.518Z,2.43
2018-10-05T16:05:14.823Z,2.53
2018-10-05T16:07:43.106Z,2.40
2018-10-05T16:10:11.401Z,2.97
2018-10-05T16:12:39.890Z,2.40
2018-10-05T16:15:08.114Z,2.60
2018-10-05T16:17:36.386Z,2.40
2018-10-05T16:20:04.763Z,2.73
2018-10-05T16:22:33.133Z,2.70
2018-10-05T16:25:01.508Z,3.00
2018-10-05T16:27:29.780Z,2.80
2018-10-05T16:29:58.081Z,2.73
2018-10-05T16:32:26.365Z,2.73
2018-10-05T16:34:54.633Z,2.43
2018-10-05T16:37:23.160Z,2.50
2018-10-05T16:39:51.506Z,2.53
2018-10-05T16:42:20.030Z,3.13
2018-10-05T16:44:48.305Z,2.87
2018-10-05T16:47:16.541Z,2.97
2018-10-05T16:49:45.239Z,2.90
2018-10-05T16:52:13.499Z,3.23
2018-10-05T16:54:41.879Z,3.30
2018-10-05T16:57:11.065Z,3.47
2018-10-05T16:59:39.246Z,3.40
2018-10-05T17:02:07.601Z,3.87
2018-10-05T17:04:35.889Z,3.23
2018-10-05T17:07:04.260Z,3.10
2018-10-05T17:09:32.649Z,3.30
2018-10-05T17:12:01.091Z,3.37
2018-10-05T17:14:29.354Z,3.30
2018-10-05T17:16:57.638Z,3.43
2018-10-05T17:19:25.876Z,3.63
2018-10-05T17:21:54.124Z,3.17
2018-10-05T17:24:22.449Z,4.03
2018-10-05T17:26:50.785Z,3.73
2018-10-05T17:29:19.095Z,4.03
2018-10-05T17:31:47.461Z,3.50
2018-10-05T17:34:15.781Z,3.50
2018-10-05T17:36:44.053Z,4.17
2018-10-05T17:39:12.335Z,3.70
2018-10-05T17:41:40.617Z,3.43
2018-10-05T17:44:09.089Z,3.73
2018-10-05T17:46:37.421Z,3.70
2018-10-05T17:49:05.927Z,4.10
2018-10-05T17:51:34.202Z,4.40
2018-10-05T17:54:02.502Z,4.00
2018-10-05T17:56:30.841Z,3.90
2018-10-05T17:58:59.121Z,4.37
2018-10-05T18:01:27.433Z,4.00
2018-10-05T18:03:55.711Z,3.80
2018-10-05T18:06:23.992Z,4.00
2018-10-05T18:08:52.241Z,4.30
2018-10-05T18:11:20.521Z,4.30
2018-10-05T18:13:48.885Z,4.60
2018-10-05T18:16:17.126Z,4.20
2018-10-05T18:18:45.401Z,4.43
2018-10-05T18:21:13.701Z,4.70
2018-10-05T18:23:41.965Z,4.77
2018-10-05T18:26:10.396Z,6.00
2018-10-05T18:28:38.597Z,5.70
2018-10-05T18:31:06.943Z,6.20
2018-10-05T18:33:35.260Z,5.93
2018-10-05T18:36:03.558Z,6.40
2018-10-05T18:38:31.840Z,6.07
2018-10-05T18:41:00.098Z,6.20
2018-10-05T18:43:28.374Z,6.57
2018-10-05T18:45:56.658Z,5.40
2018-10-05T18:48:24.964Z,6.67
2018-10-05T18:50:53.219Z,6.60
2018-10-05T18:53:21.472Z,6.93
2018-10-05T18:55:50.273Z,5.93
2018-10-05T18:58:18.564Z,6.73
2018-10-05T19:00:46.852Z,6.10
2018-10-05T19:03:15.127Z,6.57
2018-10-05T19:05:43.394Z,6.83
2018-10-05T19:08:11.705Z,6.87
2018-10-05T19:10:40.123Z,6.27
2018-10-05T19:13:08.450Z,6.50
2018-10-05T19:15:36.819Z,6.30
2018-10-05T19:18:05.081Z,6.03
2018-10-05T19:20:33.341Z,6.50
2018-10-05T19:23:01.621Z,6.80
2018-10-05T19:25:29.880Z,6.37
2018-10-05T19:27:58.169Z,6.10
2018-10-05T19:30:26.454Z,7.03
2018-10-05T19:32:54.733Z,6.63
2018-10-05T19:35:23.017Z,7.03
2018-10-05T19:37:51.297Z,6.50
2018-10-05T19:40:19.541Z,7.07
2018-10-05T19:42:47.901Z,6.60
2018-10-05T19:45:16.172Z,6.90
2018-10-05T19:47:44.509Z,6.73
2018-10-05T19:50:12.777Z,6.77
2018-10-05T19:52:41.051Z,7.50
2018-10-05T19:55:09.383Z,6.60
2018-10-05T19:57:37.693Z,6.80
2018-10-05T20:00:06.026Z,7.50
2018-10-05T20:02:34.302Z,6.97
2018-10-05T20:05:02.554Z,7.50
2018-10-05T20:07:30.818Z,7.17
2018-10-05T20:09:59.180Z,6.90
2018-10-05T20:12:27.334Z,6.87
2018-10-05T20:14:55.647Z,7.63
2018-10-05T20:17:23.925Z,7.20
2018-10-05T20:19:52.743Z,7.63
2018-10-05T20:22:21.053Z,7.37
2018-10-05T20:24:49.358Z,7.63
2018-10-05T20:27:17.633Z,7.10
2018-10-05T20:29:45.917Z,8.00
2018-10-05T20:32:14.218Z,7.57
2018-10-05T20:34:42.470Z,7.97
2018-10-05T20:37:10.840Z,8.30
2018-10-05T20:39:39.013Z,8.00
2018-10-05T20:42:07.292Z,7.70
2018-10-05T20:44:35.702Z,7.30
2018-10-05T20:47:03.850Z,8.43
2018-10-05T20:49:32.128Z,8.33
2018-10-05T20:52:00.404Z,8.20
2018-10-05T20:54:28.812Z,8.07
2018-10-05T20:56:57.080Z,8.87
2018-10-05T20:59:25.457Z,7.63
2018-10-05T21:01:53.740Z,8.47
2018-10-05T21:04:22.087Z,8.70
2018-10-05T21:06:50.346Z,8.67
2018-10-05T21:09:18.553Z,8.40
2018-10-05T21:11:46.844Z,8.90
2018-10-05T21:14:15.108Z,8.50
2018-10-05T21:16:43.355Z,8.00
2018-10-05T21:19:11.837Z,8.33
2018-10-05T21:21:40.131Z,8.23
2018-10-05T21:24:08.367Z,7.70
2018-10-05T21:26:36.639Z,7.70
2018-10-05T21:29:05.475Z,8.60
2018-10-05T21:31:33.744Z,7.90
2018-10-05T21:34:02.002Z,7.77
2018-10-05T21:36:30.283Z,8.03
2018-10-05T21:38:58.542Z,8.00
2018-10-05T21:41:26.816Z,8.30
2018-10-05T21:43:55.216Z,7.40
2018-10-05T21:46:23.613Z,7.43
2018-10-05T21:48:51.909Z,7.93
2018-10-05T21:51:20.235Z,7.83
2018-10-05T21:53:48.541Z,8.40
2018-10-05T21:56:16.936Z,7.60
2018-10-05T21:58:45.283Z,8.30
2018-10-05T22:01:13.565Z,7.70
2018-10-05T22:03:46.245Z,7.83
2018-10-05T22:06:15.646Z,7.40
2018-10-05T22:08:44.207Z,6.80
2018-10-05T22:11:12.551Z,7.03
2018-10-05T22:13:40.806Z,7.77
2018-10-05T22:16:09.496Z,8.17
2018-10-05T22:18:37.782Z,7.83
2018-10-05T22:21:06.021Z,7.50
2018-10-05T22:23:34.314Z,7.97
2018-10-05T22:26:02.577Z,8.27
2018-10-05T22:28:30.942Z,8.57
2018-10-05T22:30:59.218Z,7.93
2018-10-05T22:33:27.505Z,8.00
2018-10-05T22:35:55.798Z,8.73
2018-10-05T22:38:24.093Z,8.00
2018-10-05T22:40:52.368Z,8.03
2018-10-05T22:43:20.614Z,7.53
2018-10-05T22:45:48.929Z,7.73
2018-10-05T22:48:17.152Z,7.97
2018-10-05T22:50:45.430Z,7.50
2018-10-05T22:53:13.666Z,7.57
2018-10-05T22:55:41.922Z,8.13
2018-10-05T22:58:10.209Z,7.33
2018-10-05T23:00:38.473Z,7.77
2018-10-05T23:03:06.732Z,8.20
2018-10-05T23:05:34.981Z,7.83
2018-10-05T23:08:03.217Z,8.47
2018-10-05T23:10:31.481Z,8.27
2018-10-05T23:12:59.738Z,8.27
2018-10-05T23:15:28.033Z,8.20
2018-10-05T23:17:56.314Z,8.40
2018-10-05T23:20:24.569Z,7.70
2018-10-05T23:22:52.844Z,8.20
2018-10-05T23:25:21.131Z,8.57
2018-10-05T23:27:49.425Z,7.77
2018-10-05T23:30:17.689Z,7.83
2018-10-05T23:32:45.954Z,8.63
2018-10-05T23:35:14.246Z,8.40
2018-10-05T23:37:42.504Z,9.07
2018-10-05T23:40:10.771Z,8.93
2018-10-05T23:42:38.986Z,8.70
2018-10-05T23:45:07.252Z,9.23
2018-10-05T23:47:35.537Z,8.33
2018-10-05T23:50:03.785Z,8.70
2018-10-05T23:52:42.185Z,8.53
2018-10-05T23:55:10.473Z,9.10
2018-10-05T23:57:39.426Z,9.07
